Time;durP1;ratioP1;P1;durP2;ratioP2;P2;SDS_P1;SDS_P2;PMS_P1;PMS_P2;Temp;Humidity;BMP_temperature;BMP_pressure;BME280_temperature;BME280_humidity;BME280_pressure;Samples;Min_cycle;Max_cycle;Signal;HPM_P1;HPM_P2
2023/11/15 00:01:12;;;;;;;21.00;6.80;;;10.20;99.90;;;;;;4996511;28;20045;-81
2023/11/15 00:03:38;;;;;;;14.10;4.63;;;10.20;99.90;;;;;;4994550;28;20049;-81
2023/11/15 00:06:05;;;;;;;21.63;5.90;;;10.30;99.90;;;;;;4997551;28;20022;-79
2023/11/15 00:08:31;;;;;;;21.45;6.47;;;10.20;99.90;;;;;;4995920;28;20030;-79
2023/11/15 00:10:58;;;;;;;18.35;5.68;;;10.30;99.90;;;;;;4997672;28;20034;-80
2023/11/15 00:13:24;;;;;;;18.92;6.43;;;10.30;99.90;;;;;;4995543;28;20037;-81
2023/11/15 00:15:51;;;;;;;16.75;6.25;;;10.30;99.90;;;;;;4979745;28;20448;-78
2023/11/15 00:18:17;;;;;;;22.30;8.07;;;10.30;99.90;;;;;;4997865;28;20397;-80
2023/11/15 00:20:43;;;;;;;9.30;3.70;;;10.30;99.90;;;;;;4995627;28;20037;-79
2023/11/15 00:23:10;;;;;;;14.93;5.70;;;10.30;99.90;;;;;;4977137;28;20547;-78
2023/11/15 00:25:36;;;;;;;12.10;4.72;;;10.40;99.90;;;;;;4993449;28;20034;-81
2023/11/15 00:28:03;;;;;;;17.77;5.55;;;10.30;99.90;;;;;;4979770;28;20042;-76
2023/11/15 00:30:29;;;;;;;13.15;4.43;;;10.40;99.90;;;;;;4994739;28;20042;-81
2023/11/15 00:32:56;;;;;;;13.77;5.38;;;10.30;99.90;;;;;;4979380;28;20030;-79
2023/11/15 00:35:23;;;;;;;14.13;4.82;;;10.30;99.90;;;;;;4982027;28;20365;-80
2023/11/15 00:37:49;;;;;;;15.13;4.93;;;10.30;99.90;;;;;;5000798;28;20045;-79
2023/11/15 00:40:16;;;;;;;8.63;3.50;;;10.30;99.90;;;;;;4966347;28;20040;-78
2023/11/15 00:42:43;;;;;;;15.43;4.22;;;10.30;99.90;;;;;;4980403;28;20049;-78
2023/11/15 00:45:11;;;;;;;10.25;3.85;;;10.30;99.90;;;;;;4998771;28;20285;-78
2023/11/15 00:47:39;;;;;;;14.15;3.65;;;10.30;99.90;;;;;;4982837;28;20042;-79
2023/11/15 00:50:07;;;;;;;9.93;3.83;;;10.30;99.90;;;;;;4966684;28;20038;-79
2023/11/15 00:52:34;;;;;;;9.85;3.70;;;10.30;99.90;;;;;;4997213;28;20026;-79
2023/11/15 00:55:00;;;;;;;14.38;4.32;;;10.30;99.90;;;;;;4997891;28;20034;-77
2023/11/15 00:57:27;;;;;;;14.45;4.47;;;10.30;99.90;;;;;;4997958;28;20042;-79
2023/11/15 00:59:54;;;;;;;14.90;5.40;;;10.30;99.90;;;;;;4998333;28;20042;-77
2023/11/15 01:02:21;;;;;;;21.77;6.22;;;10.40;99.90;;;;;;4980717;28;20593;-77
2023/11/15 01:04:50;;;;;;;16.20;5.85;;;10.30;99.90;;;;;;4997641;28;20048;-81
2023/11/15 01:07:17;;;;;;;16.17;5.72;;;10.40;99.90;;;;;;4997968;28;20323;-78
2023/11/15 01:09:43;;;;;;;14.75;4.72;;;10.30;99.90;;;;;;5001822;28;20504;-78
2023/11/15 01:12:09;;;;;;;16.92;5.00;;;10.30;99.90;;;;;;4999135;28;20065;-76
2023/11/15 01:14:36;;;;;;;10.80;3.88;;;10.30;99.90;;;;;;5013674;28;20037;-79
2023/11/15 01:17:04;;;;;;;11.60;3.97;;;10.30;99.90;;;;;;4981959;28;20045;-77
2023/11/15 01:19:31;;;;;;;9.02;3.17;;;10.20;99.90;;;;;;4998250;28;20025;-78
2023/11/15 01:21:57;;;;;;;13.77;4.03;;;10.30;99.90;;;;;;4997736;28;20034;-77
2023/11/15 01:24:27;;;;;;;13.98;4.00;;;10.30;99.90;;;;;;4981442;28;20037;-78
2023/11/15 01:26:53;;;;;;;9.13;2.92;;;10.30;99.90;;;;;;4999796;28;20077;-79
2023/11/15 01:29:20;;;;;;;6.88;2.25;;;10.20;99.90;;;;;;4997152;28;20025;-78
2023/11/15 01:31:46;;;;;;;7.63;1.60;;;10.20;99.90;;;;;;4997772;28;20030;-79
2023/11/15 01:34:16;;;;;;;6.10;1.40;;;10.20;99.90;;;;;;4981621;28;20022;-78
2023/11/15 01:36:45;;;;;;;3.97;1.30;;;10.10;99.90;;;;;;4982861;28;20050;-78
2023/11/15 01:39:16;;;;;;;5.35;1.15;;;10.10;99.90;;;;;;5012529;28;20045;-78
2023/11/15 01:41:48;;;;;;;4.45;1.08;;;10.10;99.90;;;;;;4981488;28;20037;-78
2023/11/15 01:44:19;;;;;;;1.83;0.80;;;10.00;99.90;;;;;;4997691;28;20034;-77
2023/11/15 01:46:50;;;;;;;2.75;0.88;;;10.00;99.90;;;;;;4998600;28;20381;-77
2023/11/15 01:49:17;;;;;;;4.10;0.70;;;10.00;99.90;;;;;;5000537;28;20038;-77
2023/11/15 01:51:44;;;;;;;3.22;1.15;;;9.90;99.90;;;;;;4996828;28;20523;-77
2023/11/15 01:54:13;;;;;;;6.10;1.20;;;9.90;99.90;;;;;;4998853;28;20030;-78
2023/11/15 01:56:40;;;;;;;3.80;0.85;;;9.90;99.90;;;;;;4996393;28;20038;-78
2023/11/15 01:59:08;;;;;;;3.55;1.00;;;9.90;99.90;;;;;;4980344;28;20053;-80
2023/11/15 02:01:35;;;;;;;4.97;1.00;;;9.90;99.90;;;;;;4980841;28;20034;-79
2023/11/15 02:04:02;;;;;;;4.80;1.10;;;9.90;99.90;;;;;;4964439;28;20038;-80
2023/11/15 02:06:31;;;;;;;4.95;1.10;;;9.90;99.90;;;;;;4980896;28;20029;-80
2023/11/15 02:08:59;;;;;;;6.38;0.93;;;9.90;99.90;;;;;;4980991;28;21549;-80
2023/11/15 02:11:26;;;;;;;4.45;0.80;;;9.90;99.90;;;;;;4965065;28;20038;-79
2023/11/15 02:13:53;;;;;;;5.15;1.08;;;9.80;99.90;;;;;;4979665;28;20045;-78
2023/11/15 02:16:21;;;;;;;4.93;0.90;;;9.80;99.90;;;;;;4965208;28;20045;-79
2023/11/15 02:18:48;;;;;;;4.85;0.90;;;9.70;99.90;;;;;;4982763;28;20398;-79
2023/11/15 02:21:15;;;;;;;3.75;1.08;;;9.70;99.90;;;;;;4966798;28;20405;-78
2023/11/15 02:23:45;;;;;;;4.38;1.00;;;9.60;99.90;;;;;;4979739;28;20416;-80
2023/11/15 02:26:12;;;;;;;1.85;0.80;;;9.60;99.90;;;;;;4998510;28;20038;-79
2023/11/15 02:28:39;;;;;;;2.75;1.00;;;9.60;99.90;;;;;;4998094;28;20484;-80
2023/11/15 02:31:06;;;;;;;2.88;1.00;;;9.50;99.90;;;;;;4980247;28;20041;-78
2023/11/15 02:33:32;;;;;;;4.55;1.15;;;9.60;99.90;;;;;;4979682;28;20037;-79
2023/11/15 02:35:58;;;;;;;4.07;1.42;;;9.60;99.90;;;;;;4964793;28;20350;-80
2023/11/15 02:38:25;;;;;;;4.10;0.85;;;9.60;99.90;;;;;;4980275;28;20046;-80
2023/11/15 02:40:51;;;;;;;4.28;1.83;;;9.60;99.90;;;;;;4999183;28;20036;-80
2023/11/15 02:43:18;;;;;;;2.83;0.98;;;9.60;99.90;;;;;;4995930;28;20030;-78
2023/11/15 02:45:44;;;;;;;2.17;0.90;;;9.70;99.90;;;;;;4962686;28;20088;-80
2023/11/15 02:48:11;;;;;;;4.13;1.38;;;9.70;99.90;;;;;;4981504;28;20025;-80
2023/11/15 02:50:38;;;;;;;3.67;1.42;;;9.70;99.90;;;;;;4996492;28;20413;-82
2023/11/15 02:53:04;;;;;;;3.58;1.55;;;9.80;99.90;;;;;;4981573;28;20038;-78
2023/11/15 02:55:31;;;;;;;6.68;1.63;;;9.80;99.90;;;;;;4997983;28;20680;-81
2023/11/15 02:57:57;;;;;;;6.07;1.42;;;9.80;99.90;;;;;;4978929;28;20041;-81
2023/11/15 03:00:23;;;;;;;5.07;1.25;;;9.80;99.90;;;;;;4981852;28;20037;-81
2023/11/15 03:02:50;;;;;;;2.97;1.40;;;9.90;99.90;;;;;;4980230;28;20056;-79
2023/11/15 03:05:17;;;;;;;3.85;1.40;;;9.90;99.90;;;;;;5000111;28;20030;-79
2023/11/15 03:07:44;;;;;;;5.13;1.67;;;9.90;99.90;;;;;;4966292;28;20046;-80
2023/11/15 03:10:11;;;;;;;6.28;2.47;;;9.90;99.90;;;;;;4998685;28;20034;-79
2023/11/15 03:12:37;;;;;;;10.05;3.33;;;9.90;99.90;;;;;;5011700;28;20038;-78
2023/11/15 03:15:05;;;;;;;14.93;5.25;;;9.90;99.90;;;;;;4964934;28;20058;-79
2023/11/15 03:17:32;;;;;;;9.52;4.13;;;9.90;99.90;;;;;;4994814;28;20414;-79
2023/11/15 03:19:59;;;;;;;9.85;3.80;;;9.90;99.90;;;;;;4997784;28;20046;-79
2023/11/15 03:22:25;;;;;;;10.95;3.85;;;10.00;99.90;;;;;;4980597;28;20041;-79
2023/11/15 03:24:51;;;;;;;11.00;3.78;;;10.00;99.90;;;;;;4963264;28;20037;-80
2023/11/15 03:27:19;;;;;;;6.28;3.50;;;10.00;99.90;;;;;;4980069;28;20037;-79
2023/11/15 03:29:46;;;;;;;8.00;3.65;;;10.00;99.90;;;;;;4998034;28;20037;-78
2023/11/15 03:32:12;;;;;;;8.88;3.10;;;10.00;99.90;;;;;;5011707;28;20542;-80
2023/11/15 03:34:42;;;;;;;10.20;4.80;;;10.00;99.90;;;;;;4980249;28;20038;-80
2023/11/15 03:37:10;;;;;;;12.50;5.40;;;10.00;99.90;;;;;;4980647;28;20038;-79
2023/11/15 03:39:37;;;;;;;12.38;4.85;;;10.00;99.90;;;;;;4981432;28;20404;-80
2023/11/15 03:42:06;;;;;;;10.98;4.63;;;10.10;99.90;;;;;;4995885;28;20041;-80
2023/11/15 03:44:32;;;;;;;24.85;6.70;;;10.10;99.90;;;;;;4978708;28;20030;-80
2023/11/15 03:46:59;;;;;;;24.08;6.93;;;10.00;99.90;;;;;;4982493;28;20042;-81
2023/11/15 03:49:25;;;;;;;25.00;6.68;;;10.10;99.90;;;;;;5032145;28;21666;-80
2023/11/15 03:51:52;;;;;;;19.65;6.63;;;10.10;99.90;;;;;;4980762;28;20389;-81
2023/11/15 03:54:19;;;;;;;17.60;5.72;;;10.10;99.90;;;;;;4980408;28;20042;-82
2023/11/15 03:56:45;;;;;;;18.73;6.32;;;10.20;99.90;;;;;;4980161;28;20048;-81
2023/11/15 03:59:12;;;;;;;15.10;5.47;;;10.20;99.90;;;;;;5011658;28;20030;-80
2023/11/15 04:01:39;;;;;;;21.85;6.63;;;10.20;99.90;;;;;;4998124;28;20045;-81
2023/11/15 04:04:05;;;;;;;27.70;6.70;;;10.20;99.90;;;;;;4981487;28;20045;-81
2023/11/15 04:06:32;;;;;;;19.95;5.38;;;10.30;99.90;;;;;;4964115;28;20307;-80
2023/11/15 04:08:59;;;;;;;18.42;5.50;;;10.30;99.90;;;;;;5000589;28;20400;-79
2023/11/15 04:11:26;;;;;;;21.65;6.57;;;10.30;99.90;;;;;;5002270;28;20026;-81
2023/11/15 04:13:53;;;;;;;17.42;6.55;;;10.30;99.90;;;;;;5000164;28;20488;-82
2023/11/15 04:16:20;;;;;;;33.80;9.70;;;10.30;99.90;;;;;;5001910;28;20029;-80
2023/11/15 04:18:47;;;;;;;15.60;4.55;;;10.30;99.90;;;;;;4999663;28;20489;-82
2023/11/15 04:21:13;;;;;;;21.55;5.55;;;10.30;99.90;;;;;;4966950;28;20038;-81
2023/11/15 04:23:39;;;;;;;15.30;6.13;;;10.30;99.90;;;;;;5001415;28;20480;-80
2023/11/15 04:26:06;;;;;;;18.02;4.68;;;10.30;99.90;;;;;;5000230;28;20026;-79
2023/11/15 04:28:32;;;;;;;18.05;5.65;;;10.30;99.90;;;;;;5001959;28;20061;-80
2023/11/15 04:30:58;;;;;;;33.95;7.88;;;10.30;99.90;;;;;;5000135;28;20076;-80
2023/11/15 04:33:24;;;;;;;15.15;5.25;;;10.30;99.90;;;;;;4999247;28;20030;-80
2023/11/15 04:35:51;;;;;;;16.67;4.75;;;10.30;99.90;;;;;;5002190;28;20037;-81
2023/11/15 04:38:17;;;;;;;17.23;6.55;;;10.40;99.90;;;;;;4982866;28;20421;-81
2023/11/15 04:40:44;;;;;;;19.50;6.32;;;10.40;99.90;;;;;;4999937;28;20034;-82
2023/11/15 04:43:10;;;;;;;18.85;5.32;;;10.40;99.90;;;;;;4999998;28;20336;-82
2023/11/15 04:45:37;;;;;;;27.15;6.18;;;10.40;99.90;;;;;;4999303;28;20029;-81
2023/11/15 04:48:04;;;;;;;16.85;7.30;;;10.40;99.90;;;;;;5001102;28;20029;-78
2023/11/15 04:50:31;;;;;;;12.95;5.07;;;10.40;99.90;;;;;;5031222;28;20038;-81
2023/11/15 04:52:58;;;;;;;20.85;6.00;;;10.40;99.90;;;;;;5000661;28;20413;-82
2023/11/15 04:55:24;;;;;;;16.08;5.53;;;10.40;99.90;;;;;;5000449;28;20030;-82
2023/11/15 04:57:50;;;;;;;24.63;6.40;;;10.40;99.90;;;;;;4982860;28;20057;-81
2023/11/15 05:00:17;;;;;;;20.35;5.03;;;10.40;99.90;;;;;;4984584;28;22980;-82
2023/11/15 05:02:43;;;;;;;17.77;4.43;;;10.40;99.90;;;;;;5000272;28;20034;-81
2023/11/15 05:05:10;;;;;;;9.60;3.35;;;10.40;99.90;;;;;;5004338;28;20041;-82
2023/11/15 05:07:38;;;;;;;16.77;3.53;;;10.40;99.90;;;;;;4999112;28;20037;-80
2023/11/15 05:10:06;;;;;;;14.85;3.92;;;10.40;99.90;;;;;;4982044;28;20041;-81
2023/11/15 05:12:33;;;;;;;18.67;4.70;;;10.40;99.90;;;;;;4998865;28;20030;-81
2023/11/15 05:14:59;;;;;;;14.98;3.75;;;10.40;99.90;;;;;;4999804;28;20030;-80
2023/11/15 05:17:25;;;;;;;15.15;3.05;;;10.40;99.90;;;;;;4982737;28;20049;-80
2023/11/15 05:19:52;;;;;;;20.65;4.50;;;10.30;99.90;;;;;;4983265;28;20041;-81
2023/11/15 05:22:18;;;;;;;19.20;4.15;;;10.40;99.90;;;;;;4984817;28;20041;-80
2023/11/15 05:24:45;;;;;;;17.60;3.17;;;10.40;99.90;;;;;;5002371;28;20044;-79
2023/11/15 05:27:12;;;;;;;23.05;4.03;;;10.30;99.90;;;;;;5000573;28;20722;-80
2023/11/15 05:29:38;;;;;;;11.05;3.05;;;10.30;99.90;;;;;;4966376;28;20034;-80
2023/11/15 05:32:05;;;;;;;25.00;3.72;;;10.30;99.90;;;;;;5011369;28;20040;-80
2023/11/15 05:34:31;;;;;;;14.48;3.03;;;10.30;99.90;;;;;;4967907;28;20504;-78
2023/11/15 05:36:58;;;;;;;16.17;3.17;;;10.30;99.90;;;;;;5014830;28;20038;-79
2023/11/15 05:39:24;;;;;;;20.60;3.42;;;10.30;99.90;;;;;;5000109;28;20044;-79
2023/11/15 05:41:51;;;;;;;20.40;3.75;;;10.30;99.90;;;;;;4997361;28;20041;-80
2023/11/15 05:44:18;;;;;;;13.60;2.90;;;10.40;99.90;;;;;;4982589;28;20038;-77
2023/11/15 05:46:44;;;;;;;13.23;2.83;;;10.40;99.90;;;;;;5000551;28;20037;-80
2023/11/15 05:49:10;;;;;;;14.23;2.60;;;10.40;99.90;;;;;;4985624;28;20042;-80
2023/11/15 05:51:40;;;;;;;18.08;3.90;;;10.40;99.90;;;;;;4998790;28;20046;-79
2023/11/15 05:54:07;;;;;;;17.58;3.10;;;10.40;99.90;;;;;;4999820;28;20048;-79
2023/11/15 05:56:33;;;;;;;15.95;3.03;;;10.40;99.90;;;;;;5031179;28;20030;-80
2023/11/15 05:58:59;;;;;;;27.05;3.72;;;10.40;99.90;;;;;;4997196;28;20033;-82
2023/11/15 06:01:26;;;;;;;18.70;3.40;;;10.50;99.90;;;;;;4979969;28;20046;-79
2023/11/15 06:03:53;;;;;;;11.05;3.10;;;10.50;99.90;;;;;;4997298;28;20329;-80
2023/11/15 06:06:20;;;;;;;10.23;2.60;;;10.50;99.90;;;;;;4996645;28;20469;-80
2023/11/15 06:08:47;;;;;;;16.17;3.42;;;10.50;99.90;;;;;;4983278;28;20670;-80
2023/11/15 06:11:13;;;;;;;15.15;3.22;;;10.50;99.90;;;;;;4980978;28;20034;-80
2023/11/15 06:13:41;;;;;;;20.45;5.00;;;10.50;99.90;;;;;;4981012;28;20068;-78
2023/11/15 06:16:07;;;;;;;20.08;4.88;;;10.50;99.90;;;;;;4999688;28;20045;-78
2023/11/15 06:18:35;;;;;;;23.17;6.43;;;10.50;99.90;;;;;;4982477;28;20045;-78
2023/11/15 06:21:02;;;;;;;30.13;8.70;;;10.50;99.90;;;;;;4964533;28;20041;-78
2023/11/15 06:23:29;;;;;;;20.90;6.55;;;10.50;99.90;;;;;;4999853;28;20034;-78
2023/11/15 06:25:57;;;;;;;17.52;5.00;;;10.50;99.90;;;;;;4996147;28;20038;-78
2023/11/15 06:28:23;;;;;;;18.15;4.53;;;10.50;99.90;;;;;;4963086;28;20034;-79
2023/11/15 06:30:49;;;;;;;16.63;4.68;;;10.50;99.90;;;;;;4980356;28;20041;-82
2023/11/15 06:33:16;;;;;;;17.15;4.60;;;10.50;99.90;;;;;;4997295;28;20032;-80
2023/11/15 06:35:44;;;;;;;20.92;5.28;;;10.50;99.90;;;;;;4981049;28;20026;-78
2023/11/15 06:38:10;;;;;;;20.05;5.22;;;10.50;99.90;;;;;;4996233;28;20042;-79
2023/11/15 06:40:36;;;;;;;16.02;7.22;;;10.50;99.90;;;;;;4998061;28;20500;-80
2023/11/15 06:43:03;;;;;;;18.83;7.22;;;10.50;99.90;;;;;;5030536;28;20464;-79
2023/11/15 06:45:29;;;;;;;17.02;7.38;;;10.60;99.90;;;;;;4996626;28;20385;-78
2023/11/15 06:47:56;;;;;;;22.27;6.65;;;10.50;99.90;;;;;;4981809;28;20042;-79
2023/11/15 06:50:23;;;;;;;22.15;6.82;;;10.60;99.90;;;;;;4966197;28;20044;-80
2023/11/15 06:52:50;;;;;;;22.13;6.18;;;10.50;99.90;;;;;;4981009;28;20034;-78
2023/11/15 06:55:16;;;;;;;19.40;5.53;;;10.50;99.90;;;;;;4981110;28;20036;-78
2023/11/15 06:57:43;;;;;;;14.13;4.82;;;10.50;99.90;;;;;;4981073;28;20042;-79
2023/11/15 07:00:11;;;;;;;21.23;5.35;;;10.40;99.90;;;;;;4981526;28;20045;-79
2023/11/15 07:02:37;;;;;;;12.68;4.40;;;10.40;99.90;;;;;;4979499;28;20030;-79
2023/11/15 07:05:06;;;;;;;18.90;4.68;;;10.40;99.90;;;;;;4980728;28;20077;-79
2023/11/15 07:07:33;;;;;;;35.22;7.32;;;10.40;99.90;;;;;;4981148;28;20037;-79
2023/11/15 07:10:00;;;;;;;18.08;4.47;;;10.40;99.90;;;;;;4997198;28;20036;-79
2023/11/15 07:12:26;;;;;;;11.15;4.57;;;10.40;99.90;;;;;;4995964;28;20034;-79
2023/11/15 07:14:53;;;;;;;23.30;6.70;;;10.40;99.90;;;;;;4980206;28;20419;-78
2023/11/15 07:17:19;;;;;;;21.15;6.78;;;10.50;99.90;;;;;;4980662;28;20340;-78
2023/11/15 07:19:47;;;;;;;17.75;4.68;;;10.50;99.90;;;;;;4996563;28;20049;-78
2023/11/15 07:22:14;;;;;;;12.80;4.00;;;10.50;99.90;;;;;;4979141;28;20041;-79
2023/11/15 07:24:42;;;;;;;15.60;4.45;;;10.50;99.90;;;;;;4966209;28;20046;-78
2023/11/15 07:27:09;;;;;;;18.98;3.95;;;10.50;99.90;;;;;;4964513;28;20042;-79
2023/11/15 07:29:37;;;;;;;18.50;5.18;;;10.50;99.90;;;;;;4980024;28;20491;-82
2023/11/15 07:32:06;;;;;;;16.10;4.28;;;10.50;99.90;;;;;;4995328;28;20500;-79
2023/11/15 07:34:34;;;;;;;23.83;5.75;;;10.50;99.90;;;;;;4979341;28;20041;-79
2023/11/15 07:37:00;;;;;;;16.63;3.92;;;10.50;99.90;;;;;;4998170;28;20079;-79
2023/11/15 07:39:26;;;;;;;27.13;5.57;;;10.50;99.90;;;;;;4965343;28;20481;-80
2023/11/15 07:41:54;;;;;;;12.82;3.05;;;10.40;99.90;;;;;;4998558;28;20038;-79
2023/11/15 07:44:20;;;;;;;10.25;2.20;;;10.40;99.90;;;;;;4994902;28;20045;-79
2023/11/15 07:46:50;;;;;;;9.30;1.45;;;10.40;99.90;;;;;;4996069;28;20401;-79
2023/11/15 07:49:18;;;;;;;7.35;1.02;;;10.20;99.90;;;;;;4979891;28;20034;-79
2023/11/15 07:51:45;;;;;;;7.45;1.40;;;10.00;99.90;;;;;;5011195;28;20037;-78
2023/11/15 07:54:12;;;;;;;7.45;1.30;;;10.00;99.90;;;;;;4996172;28;20203;-77
2023/11/15 07:56:38;;;;;;;5.60;2.25;;;9.90;99.90;;;;;;4996839;28;20030;-78
2023/11/15 07:59:04;;;;;;;14.82;3.55;;;9.90;99.90;;;;;;4994646;28;20038;-78
2023/11/15 08:01:31;;;;;;;17.75;5.05;;;9.90;99.90;;;;;;4997865;28;20520;-78
2023/11/15 08:03:57;;;;;;;8.55;3.55;;;9.90;99.90;;;;;;4979851;28;20045;-78
2023/11/15 08:06:23;;;;;;;11.98;3.60;;;9.80;99.90;;;;;;4998101;28;20049;-78
2023/11/15 08:08:50;;;;;;;12.23;3.50;;;9.80;99.90;;;;;;5027482;28;20049;-78
2023/11/15 08:11:16;;;;;;;9.95;4.25;;;9.90;99.90;;;;;;4995715;28;20441;-78
2023/11/15 08:13:43;;;;;;;18.30;6.10;;;9.90;99.90;;;;;;4995377;28;20033;-78
2023/11/15 08:16:12;;;;;;;16.10;6.32;;;9.90;99.90;;;;;;4998454;28;20149;-78
2023/11/15 08:18:39;;;;;;;24.63;7.72;;;10.00;99.90;;;;;;4978845;28;20509;-77
2023/11/15 08:21:09;;;;;;;27.98;10.02;;;10.00;99.90;;;;;;4997384;28;20034;-78
2023/11/15 08:23:38;;;;;;;17.83;7.47;;;10.10;99.90;;;;;;4980677;28;20406;-80
2023/11/15 08:26:05;;;;;;;24.90;7.82;;;10.10;99.90;;;;;;4997718;28;20860;-80
2023/11/15 08:28:32;;;;;;;24.02;6.50;;;10.10;99.90;;;;;;4963395;28;20087;-80
2023/11/15 08:30:58;;;;;;;24.77;6.85;;;10.10;99.90;;;;;;4981512;28;20041;-79
2023/11/15 08:33:26;;;;;;;19.58;6.10;;;10.10;99.90;;;;;;4998936;28;20033;-78
2023/11/15 08:35:54;;;;;;;22.10;6.53;;;10.10;99.90;;;;;;4992687;28;20038;-80
2023/11/15 08:38:24;;;;;;;19.70;6.28;;;10.10;99.90;;;;;;4996648;28;20046;-80
2023/11/15 08:40:51;;;;;;;19.95;5.15;;;10.10;99.90;;;;;;4998224;28;20041;-78
2023/11/15 08:43:18;;;;;;;20.67;5.82;;;10.20;99.90;;;;;;4994563;28;20030;-78
2023/11/15 08:45:45;;;;;;;25.17;6.35;;;10.30;99.90;;;;;;4995291;28;20197;-79
2023/11/15 08:48:17;;;;;;;18.52;5.45;;;10.30;99.90;;;;;;4995989;28;20037;-79
2023/11/15 08:50:47;;;;;;;35.17;7.45;;;10.30;99.90;;;;;;4995616;28;20034;-82
2023/11/15 08:53:16;;;;;;;25.45;6.15;;;10.40;99.90;;;;;;4997405;28;20041;-80
2023/11/15 08:55:45;;;;;;;22.48;6.40;;;10.40;99.90;;;;;;5012727;28;20038;-79
2023/11/15 08:58:15;;;;;;;24.58;7.15;;;10.60;99.90;;;;;;5000926;28;20041;-80
2023/11/15 09:00:43;;;;;;;22.63;6.25;;;10.70;99.90;;;;;;5014803;28;20057;-80
2023/11/15 09:03:10;;;;;;;25.23;6.85;;;10.70;99.90;;;;;;4982513;28;20034;-78
2023/11/15 09:05:37;;;;;;;23.80;6.20;;;10.80;99.90;;;;;;5015815;28;20038;-79
2023/11/15 09:08:03;;;;;;;20.95;5.82;;;10.90;99.90;;;;;;4981539;28;20030;-79
2023/11/15 09:10:31;;;;;;;24.70;6.35;;;10.90;99.90;;;;;;4998674;28;20037;-80
2023/11/15 09:12:58;;;;;;;31.75;8.27;;;11.00;99.90;;;;;;5000229;28;20398;-79
2023/11/15 09:15:25;;;;;;;26.75;7.32;;;11.00;99.90;;;;;;4998947;28;20060;-80
2023/11/15 09:17:51;;;;;;;19.55;5.82;;;11.10;99.90;;;;;;4982729;28;20572;-80
2023/11/15 09:20:25;;;;;;;18.60;6.03;;;11.20;99.90;;;;;;4999792;28;20500;-79
2023/11/15 09:22:57;;;;;;;27.10;7.30;;;11.20;99.90;;;;;;4965191;28;20034;-80
2023/11/15 09:25:26;;;;;;;23.70;7.55;;;11.30;99.90;;;;;;4998972;28;20045;-80
2023/11/15 09:27:55;;;;;;;20.20;6.07;;;11.30;99.90;;;;;;4997722;28;20041;-79
2023/11/15 09:30:25;;;;;;;20.55;5.57;;;11.40;99.90;;;;;;4983842;28;20045;-80
2023/11/15 09:32:52;;;;;;;23.35;5.43;;;11.60;99.90;;;;;;5031146;28;20033;-81
2023/11/15 09:35:29;;;;;;;21.55;4.78;;;11.60;99.90;;;;;;5002269;28;20053;-79
2023/11/15 09:37:58;;;;;;;20.63;4.57;;;11.50;99.90;;;;;;5031046;28;20049;-80
2023/11/15 09:40:28;;;;;;;16.17;4.63;;;11.50;99.90;;;;;;4997492;28;20041;-80
2023/11/15 09:42:59;;;;;;;19.95;4.65;;;11.40;99.90;;;;;;5031752;28;20384;-81
2023/11/15 09:45:26;;;;;;;22.80;4.90;;;11.50;99.90;;;;;;4982016;28;20037;-80
2023/11/15 09:47:54;;;;;;;27.48;6.38;;;11.40;99.90;;;;;;4995981;28;20037;-81
2023/11/15 09:50:22;;;;;;;20.15;5.72;;;11.40;99.90;;;;;;4965563;28;20849;-80
2023/11/15 09:52:51;;;;;;;21.60;5.85;;;11.40;99.90;;;;;;4997566;28;20049;-80
2023/11/15 09:55:22;;;;;;;21.92;5.50;;;11.30;99.90;;;;;;4998450;28;20049;-81
2023/11/15 09:57:51;;;;;;;16.55;5.07;;;11.30;99.90;;;;;;5011930;28;20480;-81
2023/11/15 10:00:20;;;;;;;22.95;6.45;;;11.20;99.90;;;;;;4982072;28;20049;-79
2023/11/15 10:02:50;;;;;;;21.10;6.90;;;11.10;99.90;;;;;;5029657;28;20041;-81
2023/11/15 10:05:22;;;;;;;21.02;6.65;;;11.00;99.90;;;;;;5013380;28;20042;-80
2023/11/15 10:07:55;;;;;;;18.02;6.70;;;11.10;99.90;;;;;;4980272;28;20393;-81
2023/11/15 10:10:23;;;;;;;18.65;6.93;;;11.30;99.90;;;;;;4998005;28;20025;-79
2023/11/15 10:12:51;;;;;;;21.60;6.68;;;11.50;99.90;;;;;;5014994;28;20038;-80
2023/11/15 10:15:33;;;;;;;15.43;5.57;;;11.50;99.90;;;;;;4965292;28;20473;-80
2023/11/15 10:18:00;;;;;;;24.27;6.85;;;11.50;99.90;;;;;;4997179;28;20497;-81
2023/11/15 10:20:26;;;;;;;16.15;5.22;;;11.40;99.90;;;;;;4997851;28;20041;-79
2023/11/15 10:22:55;;;;;;;17.75;5.35;;;11.50;99.90;;;;;;4996798;28;20057;-80
2023/11/15 10:25:21;;;;;;;20.55;5.97;;;11.60;99.90;;;;;;4995971;28;21005;-81
2023/11/15 10:27:50;;;;;;;25.17;5.70;;;11.60;99.90;;;;;;4997729;28;20038;-81
2023/11/15 10:30:20;;;;;;;16.85;4.85;;;11.70;99.90;;;;;;4997566;28;20049;-81
2023/11/15 10:32:47;;;;;;;21.70;5.05;;;11.70;99.90;;;;;;4980094;28;20040;-80
2023/11/15 10:35:31;;;;;;;21.60;4.38;;;11.70;99.90;;;;;;4996900;28;20029;-81
2023/11/15 10:37:58;;;;;;;21.67;5.10;;;11.70;99.90;;;;;;4996530;28;20049;-82
2023/11/15 10:40:30;;;;;;;15.40;4.05;;;11.80;99.90;;;;;;4980651;28;20389;-80
2023/11/15 10:42:58;;;;;;;11.60;4.03;;;11.70;99.90;;;;;;4997656;28;20046;-79
2023/11/15 10:45:30;;;;;;;13.00;4.00;;;11.70;99.90;;;;;;4963991;28;20053;-80
2023/11/15 10:48:11;;;;;;;16.55;3.30;;;11.80;99.90;;;;;;4999901;28;20040;-79
2023/11/15 10:50:45;;;;;;;17.73;5.05;;;11.80;99.90;;;;;;4995353;28;20044;-79
2023/11/15 10:53:12;;;;;;;22.33;3.97;;;11.90;99.90;;;;;;5014025;28;20038;-79
2023/11/15 10:55:39;;;;;;;15.18;3.33;;;11.90;99.90;;;;;;4980816;28;20396;-79
2023/11/15 10:58:08;;;;;;;14.77;3.78;;;11.80;99.90;;;;;;4996238;28;20045;-79
2023/11/15 11:00:37;;;;;;;22.00;4.47;;;11.80;99.90;;;;;;4982150;28;20041;-80
2023/11/15 11:03:05;;;;;;;21.25;4.65;;;11.90;99.90;;;;;;4978837;28;20042;-79
2023/11/15 11:05:57;;;;;;;16.98;4.38;;;12.00;99.90;;;;;;4980843;28;21454;-79
2023/11/15 11:08:34;;;;;;;20.15;4.80;;;12.00;99.90;;;;;;4997876;28;20030;-80
2023/11/15 11:11:10;;;;;;;15.13;4.05;;;12.10;99.90;;;;;;5012618;28;20049;-80
2023/11/15 11:13:40;;;;;;;18.80;5.10;;;12.20;99.90;;;;;;5026204;28;20057;-80
2023/11/15 11:16:28;;;;;;;21.50;4.90;;;12.20;99.90;;;;;;5008029;28;20045;-79
2023/11/15 11:19:21;;;;;;;22.52;4.70;;;12.20;99.90;;;;;;5008468;28;20460;-79
2023/11/15 11:22:05;;;;;;;14.43;4.45;;;12.30;99.90;;;;;;5028224;28;20046;-79
2023/11/15 11:24:57;;;;;;;16.27;4.93;;;12.40;99.90;;;;;;5029135;28;20037;-80
2023/11/15 11:27:24;;;;;;;13.80;3.78;;;12.40;99.90;;;;;;4983985;28;20045;-80
2023/11/15 11:30:02;;;;;;;18.10;4.75;;;12.30;99.90;;;;;;4995792;28;20505;-80
2023/11/15 11:32:34;;;;;;;16.35;4.10;;;12.20;99.90;;;;;;4964968;28;20033;-80
2023/11/15 11:35:04;;;;;;;18.67;3.90;;;12.20;99.90;;;;;;4995180;28;20473;-80
2023/11/15 11:37:46;;;;;;;14.55;3.60;;;12.20;99.90;;;;;;4979947;28;20061;-79
2023/11/15 11:40:13;;;;;;;18.83;4.20;;;12.20;99.90;;;;;;4981285;28;20408;-80
2023/11/15 11:42:43;;;;;;;14.25;4.03;;;12.20;99.90;;;;;;5012782;28;20424;-80
2023/11/15 11:45:12;;;;;;;18.52;4.55;;;12.30;99.90;;;;;;4959117;28;20036;-79
2023/11/15 11:47:48;;;;;;;13.52;2.83;;;12.40;99.90;;;;;;4978451;28;20030;-78
2023/11/15 11:50:19;;;;;;;20.95;4.07;;;12.40;99.90;;;;;;4996686;28;20105;-79
2023/11/15 11:52:46;;;;;;;15.00;3.88;;;12.30;99.90;;;;;;4980165;28;20491;-78
2023/11/15 11:55:14;;;;;;;11.77;3.15;;;12.40;99.90;;;;;;5008370;28;20045;-81
2023/11/15 11:57:40;;;;;;;14.05;3.58;;;12.60;99.90;;;;;;4997366;28;20038;-79
2023/11/15 12:00:18;;;;;;;13.45;3.83;;;12.70;99.90;;;;;;4995767;28;20050;-78
2023/11/15 12:02:47;;;;;;;16.27;4.13;;;12.80;99.90;;;;;;4996579;28;20026;-78
2023/11/15 12:05:20;;;;;;;17.95;3.25;;;12.70;99.90;;;;;;5009590;28;20046;-80
2023/11/15 12:07:48;;;;;;;17.25;2.65;;;12.60;99.90;;;;;;4993661;28;20038;-79
2023/11/15 12:10:15;;;;;;;14.10;2.63;;;12.60;99.90;;;;;;4997333;28;20041;-79
2023/11/15 12:12:43;;;;;;;10.57;2.42;;;12.50;99.90;;;;;;4961106;28;20034;-78
2023/11/15 12:15:13;;;;;;;16.67;2.50;;;12.40;99.90;;;;;;4995048;28;21036;-77
2023/11/15 12:17:40;;;;;;;10.00;1.73;;;12.30;99.90;;;;;;4979264;28;20041;-79
2023/11/15 12:20:12;;;;;;;15.02;2.40;;;12.20;99.90;;;;;;5009747;28;20046;-82
2023/11/15 12:22:43;;;;;;;14.97;1.93;;;12.00;99.90;;;;;;4996974;28;20038;-78
2023/11/15 12:25:16;;;;;;;11.00;2.35;;;11.90;99.90;;;;;;4997042;28;20049;-78
2023/11/15 12:27:43;;;;;;;12.70;2.42;;;11.70;99.90;;;;;;4996625;28;20034;-78
2023/11/15 12:30:10;;;;;;;11.20;1.75;;;11.60;99.90;;;;;;4982437;28;20246;-77
2023/11/15 12:32:41;;;;;;;15.05;2.70;;;11.50;99.90;;;;;;5003594;28;20030;-78
2023/11/15 12:35:11;;;;;;;5.50;1.15;;;11.30;99.90;;;;;;4968499;28;20049;-79
2023/11/15 12:37:38;;;;;;;6.70;1.75;;;11.20;99.90;;;;;;4984692;28;20507;-78
2023/11/15 12:40:21;;;;;;;11.50;1.65;;;11.20;99.90;;;;;;4985896;28;20048;-80
2023/11/15 12:42:56;;;;;;;;;;;11.20;99.90;;;;;;5000591;28;20069;-79
2023/11/15 12:45:34;;;;;;;11.95;1.80;;;11.20;99.90;;;;;;4999947;28;20254;-78